createdAt,value
2019-04-01T00:00:35.673Z,3.86
2019-04-01T00:01:35.648Z,3.81
2019-04-01T00:02:35.615Z,3.81
2019-04-01T00:03:35.675Z,3.8
2019-04-01T00:04:35.559Z,3.88
2019-04-01T00:05:35.531Z,3.91
2019-04-01T00:06:35.498Z,3.78
2019-04-01T00:07:35.473Z,3.84
2019-04-01T00:08:35.442Z,3.84
2019-04-01T00:09:36.616Z,3.86
2019-04-01T00:10:35.394Z,3.81
2019-04-01T00:11:35.404Z,3.76
2019-04-01T00:12:35.324Z,3.81
2019-04-01T00:13:35.309Z,3.77
2019-04-01T00:14:35.263Z,3.77
2019-04-01T00:15:35.233Z,3.7
2019-04-01T00:16:35.205Z,3.73
2019-04-01T00:17:35.177Z,3.77
2019-04-01T00:18:35.150Z,3.76
2019-04-01T00:19:35.121Z,3.7
2019-04-01T00:20:35.087Z,3.7
2019-04-01T00:21:35.057Z,3.66
2019-04-01T00:22:35.160Z,3.65
2019-04-01T00:23:35.009Z,3.68
2019-04-01T00:24:34.978Z,3.66
2019-04-01T00:25:34.940Z,3.68
2019-04-01T00:26:34.922Z,3.56
2019-04-01T00:27:34.879Z,3.59
2019-04-01T00:28:34.848Z,3.6
2019-04-01T00:29:34.819Z,3.6
2019-04-01T00:30:34.792Z,3.62
2019-04-01T00:31:34.761Z,3.56
2019-04-01T00:32:34.729Z,3.51
2019-04-01T00:33:34.698Z,3.51
2019-04-01T00:34:34.676Z,3.55
2019-04-01T00:35:34.641Z,3.56
2019-04-01T00:36:34.614Z,3.45
2019-04-01T00:37:34.581Z,3.5
2019-04-01T00:38:34.558Z,3.48
2019-04-01T00:39:34.529Z,3.47
2019-04-01T00:40:34.494Z,3.45
2019-04-01T00:41:34.463Z,3.47
2019-04-01T00:42:34.429Z,3.36
2019-04-01T00:43:34.401Z,3.37
2019-04-01T00:44:34.452Z,3.36
2019-04-01T00:45:34.352Z,3.47
2019-04-01T00:46:34.326Z,3.34
2019-04-01T00:47:34.284Z,3.28
2019-04-01T00:48:34.251Z,3.34
2019-04-01T00:49:34.225Z,3.28
2019-04-01T00:50:35.402Z,3.36
2019-04-01T00:51:34.158Z,3.41
2019-04-01T00:52:33.898Z,3.32
2019-04-01T00:53:34.098Z,3.32
2019-04-01T00:54:34.070Z,3.32
2019-04-01T00:55:34.045Z,3.25
2019-04-01T00:56:34.008Z,3.25
2019-04-01T00:57:33.988Z,3.25
2019-04-01T00:58:35.434Z,3.21
2019-04-01T00:59:33.942Z,3.26
2019-04-01T01:00:33.896Z,3.28
2019-04-01T01:01:33.622Z,3.22
2019-04-01T01:02:33.836Z,3.22
2019-04-01T01:03:33.802Z,3.1
2019-04-01T01:04:33.769Z,3.16
2019-04-01T01:05:33.749Z,3.1
2019-04-01T01:06:33.710Z,3.21
2019-04-01T01:07:33.680Z,3.22
2019-04-01T01:08:33.659Z,3.14
2019-04-01T01:09:33.617Z,3.18
2019-04-01T01:10:33.603Z,3.13
2019-04-01T01:11:33.569Z,3.16
2019-04-01T01:12:33.528Z,3.14
2019-04-01T01:13:33.501Z,3.16
2019-04-01T01:14:33.472Z,3.1
2019-04-01T01:15:33.439Z,3.03
2019-04-01T01:16:33.409Z,3.01
2019-04-01T01:17:33.384Z,3.03
2019-04-01T01:18:33.351Z,3.01
2019-04-01T01:19:33.324Z,3.1
2019-04-01T01:20:33.311Z,3.1
2019-04-01T01:21:33.259Z,3.03
2019-04-01T01:22:33.230Z,3.03
2019-04-01T01:23:33.200Z,2.97
2019-04-01T01:24:35.055Z,3
2019-04-01T01:25:33.227Z,3.01
2019-04-01T01:26:33.110Z,2.93
2019-04-01T01:27:33.081Z,2.97
2019-04-01T01:28:33.052Z,2.89
2019-04-01T01:29:33.025Z,2.97
2019-04-01T01:30:32.984Z,2.93
2019-04-01T01:31:32.956Z,2.97
2019-04-01T01:32:32.925Z,2.83
2019-04-01T01:33:32.899Z,2.92
2019-04-01T01:34:32.872Z,2.92
2019-04-01T01:35:32.842Z,2.92
2019-04-01T01:36:32.810Z,2.92
2019-04-01T01:37:32.856Z,2.85
2019-04-01T01:38:32.753Z,2.87
2019-04-01T01:39:32.716Z,2.92
2019-04-01T01:40:32.691Z,2.82
2019-04-01T01:41:32.651Z,2.8
2019-04-01T01:42:32.633Z,2.75
2019-04-01T01:43:32.598Z,2.79
2019-04-01T01:44:32.566Z,2.85
2019-04-01T01:45:32.532Z,2.83
2019-04-01T01:46:32.508Z,2.74
2019-04-01T01:47:32.475Z,2.75
2019-04-01T01:48:32.496Z,2.82
2019-04-01T01:49:32.421Z,2.79
2019-04-01T01:50:32.397Z,2.83
2019-04-01T01:51:32.354Z,2.77
2019-04-01T01:52:32.322Z,2.65
2019-04-01T01:53:32.292Z,2.67
2019-04-01T01:54:32.259Z,2.64
2019-04-01T01:55:32.232Z,2.65
2019-04-01T01:56:32.201Z,2.67
2019-04-01T01:57:32.169Z,2.65
2019-04-01T01:58:32.138Z,2.62
2019-04-01T01:59:32.108Z,2.64
2019-04-01T02:00:33.276Z,2.65
2019-04-01T02:01:32.048Z,2.67
2019-04-01T02:02:32.028Z,2.64
2019-04-01T02:03:31.991Z,2.68
2019-04-01T02:04:31.956Z,2.6
2019-04-01T02:05:31.926Z,2.6
2019-04-01T02:06:31.898Z,2.6
2019-04-01T02:07:31.865Z,2.5
2019-04-01T02:08:31.831Z,2.6
2019-04-01T02:09:31.805Z,2.54
2019-04-01T02:10:31.778Z,2.57
2019-04-01T02:11:31.746Z,2.54
2019-04-01T02:12:31.713Z,2.46
2019-04-01T02:13:31.689Z,2.49
2019-04-01T02:14:31.658Z,2.44
2019-04-01T02:15:31.623Z,2.46
2019-04-01T02:16:31.590Z,2.44
2019-04-01T02:17:31.561Z,2.49
2019-04-01T02:18:31.528Z,2.44
2019-04-01T02:19:31.500Z,2.47
2019-04-01T02:20:31.465Z,2.47
2019-04-01T02:21:31.447Z,2.46
2019-04-01T02:22:31.409Z,2.39
2019-04-01T02:23:31.374Z,2.44
2019-04-01T02:24:31.345Z,2.43
2019-04-01T02:25:31.318Z,2.38
2019-04-01T02:26:31.282Z,2.39
2019-04-01T02:27:31.254Z,2.29
2019-04-01T02:28:31.221Z,2.33
2019-04-01T02:29:31.190Z,2.32
2019-04-01T02:30:31.168Z,2.35
2019-04-01T02:31:31.138Z,2.2
2019-04-01T02:32:31.133Z,2.26
2019-04-01T02:33:31.105Z,2.28
2019-04-01T02:34:31.048Z,2.26
2019-04-01T02:35:31.017Z,2.31
2019-04-01T02:36:30.982Z,2.18
2019-04-01T02:37:30.953Z,2.14
2019-04-01T02:38:30.926Z,2.14
2019-04-01T02:39:30.885Z,2.18
2019-04-01T02:40:30.887Z,2.28
2019-04-01T02:41:30.842Z,2.26
2019-04-01T02:42:30.810Z,2.18
2019-04-01T02:43:30.776Z,2.14
2019-04-01T02:44:30.738Z,2.15
2019-04-01T02:45:30.820Z,2.28
2019-04-01T02:46:30.711Z,2.17
2019-04-01T02:47:30.640Z,2.13
2019-04-01T02:48:30.739Z,2.11
2019-04-01T02:49:30.587Z,2.11
2019-04-01T02:50:30.570Z,2.13
2019-04-01T02:51:30.525Z,2.07
2019-04-01T02:52:30.497Z,2.11
2019-04-01T02:53:30.466Z,2.1
2019-04-01T02:54:30.479Z,2.13
2019-04-01T02:55:30.410Z,2.07
2019-04-01T02:56:30.372Z,1.99
2019-04-01T02:57:30.341Z,2.07
2019-04-01T02:58:30.306Z,2
2019-04-01T02:59:30.384Z,1.99
2019-04-01T03:00:30.265Z,1.92
2019-04-01T03:01:30.003Z,2
2019-04-01T03:02:30.180Z,1.99
2019-04-01T03:03:30.157Z,1.95
2019-04-01T03:04:30.135Z,1.95
2019-04-01T03:05:30.255Z,1.85
2019-04-01T03:06:30.080Z,1.84
2019-04-01T03:07:30.024Z,1.87
2019-04-01T03:08:29.994Z,1.87
2019-04-01T03:09:29.969Z,1.76
2019-04-01T03:10:30.022Z,1.87
2019-04-01T03:11:29.916Z,1.78
2019-04-01T03:12:29.935Z,1.84
2019-04-01T03:13:29.859Z,1.81
2019-04-01T03:14:29.671Z,1.84
2019-04-01T03:15:30.048Z,1.8
2019-04-01T03:16:29.851Z,1.77
2019-04-01T03:17:29.753Z,1.84
2019-04-01T03:18:29.695Z,1.78
2019-04-01T03:19:29.422Z,1.77
2019-04-01T03:20:29.631Z,1.66
2019-04-01T03:21:29.593Z,1.74
2019-04-01T03:22:29.560Z,1.63
2019-04-01T03:23:29.529Z,1.76
2019-04-01T03:24:29.297Z,1.73
2019-04-01T03:25:29.472Z,1.7
2019-04-01T03:26:29.449Z,1.77
2019-04-01T03:27:29.409Z,1.67
2019-04-01T03:28:29.368Z,1.68
2019-04-01T03:29:29.146Z,1.73
2019-04-01T03:30:29.406Z,1.67
2019-04-01T03:31:29.287Z,1.73
2019-04-01T03:32:29.291Z,1.7
2019-04-01T03:33:28.991Z,1.68
2019-04-01T03:34:29.269Z,1.74
2019-04-01T03:35:29.166Z,1.73
2019-04-01T03:36:29.126Z,1.63
2019-04-01T03:37:29.102Z,1.58
2019-04-01T03:38:32.648Z,1.7
2019-04-01T03:39:29.042Z,1.63
2019-04-01T03:40:29.001Z,1.66
2019-04-01T03:41:28.995Z,1.59
2019-04-01T03:42:28.935Z,1.66
2019-04-01T03:43:28.924Z,1.58
2019-04-01T03:44:28.904Z,1.58
2019-04-01T03:45:28.866Z,1.56
2019-04-01T03:46:28.844Z,1.55
2019-04-01T03:47:28.781Z,1.52
2019-04-01T03:48:28.760Z,1.55
2019-04-01T03:49:28.737Z,1.5
2019-04-01T03:50:28.856Z,1.53
2019-04-01T03:51:28.654Z,1.49
2019-04-01T03:52:28.633Z,1.45
2019-04-01T03:53:28.591Z,1.48
2019-04-01T03:54:28.580Z,1.45
2019-04-01T03:55:28.528Z,1.48
2019-04-01T03:56:28.498Z,1.4
2019-04-01T03:57:28.596Z,1.49
2019-04-01T03:58:28.435Z,1.52
2019-04-01T03:59:28.417Z,1.52
2019-04-01T04:00:28.384Z,1.45
2019-04-01T04:01:32.934Z,1.44
2019-04-01T04:02:28.326Z,1.45
2019-04-01T04:03:28.288Z,1.44
2019-04-01T04:04:28.300Z,1.49
2019-04-01T04:05:28.210Z,1.42
2019-04-01T04:06:28.215Z,1.44
2019-04-01T04:07:28.176Z,1.5
2019-04-01T04:08:28.130Z,1.4
2019-04-01T04:09:28.097Z,1.49
2019-04-01T04:10:28.060Z,1.44
2019-04-01T04:11:28.032Z,1.38
2019-04-01T04:12:28.013Z,1.4
2019-04-01T04:13:27.970Z,1.42
2019-04-01T04:14:28.052Z,1.34
2019-04-01T04:15:27.902Z,1.38
2019-04-01T04:16:27.885Z,1.34
2019-04-01T04:17:27.840Z,1.34
2019-04-01T04:18:27.818Z,1.34
2019-04-01T04:19:27.774Z,1.38
2019-04-01T04:20:27.751Z,1.42
2019-04-01T04:21:28.887Z,1.32
2019-04-01T04:22:27.693Z,1.35
2019-04-01T04:23:27.657Z,1.32
2019-04-01T04:24:27.664Z,1.41
2019-04-01T04:25:27.593Z,1.4
2019-04-01T04:26:27.558Z,1.38
2019-04-01T04:27:27.553Z,1.37
2019-04-01T04:28:27.506Z,1.42
2019-04-01T04:29:27.464Z,1.4
2019-04-01T04:30:27.440Z,1.34
2019-04-01T04:31:27.407Z,1.37
2019-04-01T04:32:27.388Z,1.41
2019-04-01T04:33:27.339Z,1.4
2019-04-01T04:34:27.305Z,1.44
2019-04-01T04:35:27.270Z,1.35
2019-04-01T04:36:27.248Z,1.34
2019-04-01T04:37:27.226Z,1.37
2019-04-01T04:38:27.179Z,1.32
2019-04-01T04:39:27.152Z,1.31
2019-04-01T04:40:27.123Z,1.41
2019-04-01T04:41:27.320Z,1.32
2019-04-01T04:42:26.820Z,1.35
2019-04-01T04:43:27.022Z,1.34
2019-04-01T04:44:26.991Z,1.31
2019-04-01T04:45:26.735Z,1.4
2019-04-01T04:46:26.939Z,1.31
2019-04-01T04:47:26.895Z,1.34
2019-04-01T04:48:26.867Z,1.34
2019-04-01T04:49:26.834Z,1.17
2019-04-01T04:50:26.808Z,1.24
2019-04-01T04:51:26.773Z,1.3
2019-04-01T04:52:26.738Z,1.31
2019-04-01T04:53:26.706Z,1.35
2019-04-01T04:54:26.675Z,1.31
2019-04-01T04:55:26.642Z,1.24
2019-04-01T04:56:26.607Z,1.17
2019-04-01T04:57:26.582Z,1.32
2019-04-01T04:58:26.545Z,1.31
2019-04-01T04:59:26.517Z,1.34
2019-04-01T05:00:26.489Z,1.3
2019-04-01T05:01:26.450Z,1.3
2019-04-01T05:02:29.432Z,1.32
2019-04-01T05:03:26.389Z,1.26
2019-04-01T05:04:26.356Z,1.32
2019-04-01T05:05:26.320Z,1.3
2019-04-01T05:06:26.316Z,1.34
2019-04-01T05:07:26.265Z,1.32
2019-04-01T05:08:26.251Z,1.34
2019-04-01T05:09:25.960Z,1.32
2019-04-01T05:10:26.136Z,1.28
2019-04-01T05:11:26.140Z,1.32
2019-04-01T05:12:26.106Z,1.3
2019-04-01T05:13:26.081Z,1.3
2019-04-01T05:14:26.052Z,1.22
2019-04-01T05:15:26.016Z,1.26
2019-04-01T05:16:26.851Z,1.28
2019-04-01T05:17:25.947Z,1.17
2019-04-01T05:18:25.913Z,1.16
2019-04-01T05:19:25.881Z,1.23
2019-04-01T05:20:25.852Z,1.2
2019-04-01T05:21:25.819Z,1.22
2019-04-01T05:22:25.794Z,1.2
2019-04-01T05:23:25.754Z,1.28
2019-04-01T05:24:25.729Z,1.22
2019-04-01T05:25:25.695Z,1.26
2019-04-01T05:26:25.668Z,1.22
2019-04-01T05:27:26.167Z,1.23
2019-04-01T05:28:26.115Z,1.23
2019-04-01T05:29:25.580Z,1.23
2019-04-01T05:30:26.002Z,1.2
2019-04-01T05:31:25.587Z,1.26
2019-04-01T05:32:25.478Z,1.28
2019-04-01T05:33:25.444Z,1.28
2019-04-01T05:34:25.413Z,1.26
2019-04-01T05:35:25.382Z,1.3
2019-04-01T05:36:26.420Z,1.24
2019-04-01T05:37:25.320Z,1.31
2019-04-01T05:38:25.294Z,1.3
2019-04-01T05:39:25.288Z,1.32
2019-04-01T05:40:25.329Z,1.34
2019-04-01T05:41:25.208Z,1.41
2019-04-01T05:42:25.158Z,1.45
2019-04-01T05:43:25.126Z,1.4
2019-04-01T05:44:25.114Z,1.38
2019-04-01T05:45:25.066Z,1.41
2019-04-01T05:46:25.036Z,1.4
2019-04-01T05:47:25.007Z,1.35
2019-04-01T05:48:24.971Z,1.45
2019-04-01T05:49:24.941Z,1.42
2019-04-01T05:50:24.915Z,1.44
2019-04-01T05:51:24.876Z,1.4
2019-04-01T05:52:24.902Z,1.49
2019-04-01T05:53:24.817Z,1.45
2019-04-01T05:54:24.786Z,1.53
2019-04-01T05:55:24.766Z,1.52
2019-04-01T05:56:26.872Z,1.56
2019-04-01T05:57:26.638Z,1.58
2019-04-01T05:58:26.577Z,1.53
2019-04-01T05:59:25.857Z,1.59
2019-04-01T06:00:26.964Z,1.59
2019-04-01T06:01:26.284Z,1.68
2019-04-01T06:02:26.360Z,1.67
2019-04-01T06:03:25.054Z,1.7
2019-04-01T06:04:26.208Z,1.73
2019-04-01T06:05:25.744Z,1.7
2019-04-01T06:06:25.426Z,1.77
2019-04-01T06:07:26.579Z,1.78
2019-04-01T06:08:25.947Z,1.84
2019-04-01T06:09:25.834Z,1.8
2019-04-01T06:10:26.248Z,1.84
2019-04-01T06:11:25.367Z,1.88
2019-04-01T06:12:28.131Z,1.85
2019-04-01T06:13:25.321Z,1.94
2019-04-01T06:14:25.770Z,1.91
2019-04-01T06:15:25.970Z,1.97
2019-04-01T06:16:25.683Z,2.06
2019-04-01T06:17:25.402Z,1.94
2019-04-01T06:18:25.647Z,2.06
2019-04-01T06:19:25.924Z,2.06
2019-04-01T06:20:25.326Z,2.07
2019-04-01T06:21:24.701Z,2.04
2019-04-01T06:22:25.082Z,2.13
2019-04-01T06:23:25.747Z,2.11
2019-04-01T06:24:28.031Z,2.1
2019-04-01T06:25:25.659Z,2.1
2019-04-01T06:26:25.279Z,2.11
2019-04-01T06:27:26.304Z,2.1
2019-04-01T06:28:24.739Z,2.07
2019-04-01T06:29:24.860Z,2.17
2019-04-01T06:30:27.259Z,2.17
2019-04-01T06:31:25.762Z,2.1
2019-04-01T06:32:24.621Z,2.25
2019-04-01T06:33:25.147Z,2.28
2019-04-01T06:34:24.845Z,2.2
2019-04-01T06:35:24.789Z,2.17
2019-04-01T06:36:25.190Z,2.18
2019-04-01T06:37:24.366Z,2.26
2019-04-01T06:38:24.635Z,2.26
2019-04-01T06:39:23.849Z,2.32
2019-04-01T06:40:24.590Z,2.44
2019-04-01T06:41:24.640Z,2.44
2019-04-01T06:42:24.393Z,2.46
2019-04-01T06:43:23.446Z,2.44
2019-04-01T06:44:24.581Z,2.5
2019-04-01T06:45:24.410Z,2.44
2019-04-01T06:46:24.262Z,2.46
2019-04-01T06:47:24.801Z,2.44
2019-04-01T06:48:23.773Z,2.46
2019-04-01T06:49:25.353Z,2.54
2019-04-01T06:50:24.153Z,2.56
2019-04-01T06:51:24.982Z,2.64
2019-04-01T06:52:24.719Z,2.71
2019-04-01T06:53:23.993Z,2.71
2019-04-01T06:54:24.216Z,2.75
2019-04-01T06:55:24.341Z,2.75
2019-04-01T06:56:23.971Z,2.77
2019-04-01T06:57:24.045Z,2.79
2019-04-01T06:58:23.917Z,2.82
2019-04-01T06:59:24.711Z,2.92
2019-04-01T07:00:24.182Z,2.8
2019-04-01T07:01:24.553Z,2.93
2019-04-01T07:02:25.057Z,3
2019-04-01T07:03:24.606Z,3.03
2019-04-01T07:04:23.803Z,3.1
2019-04-01T07:05:24.857Z,3.14
2019-04-01T07:06:23.994Z,3.22
2019-04-01T07:07:25.307Z,3.18
2019-04-01T07:08:24.345Z,3.22
2019-04-01T07:09:23.850Z,3.34
2019-04-01T07:10:27.861Z,3.31
2019-04-01T07:11:25.888Z,3.34
2019-04-01T07:12:23.942Z,3.29
2019-04-01T07:13:23.902Z,3.32
2019-04-01T07:14:23.287Z,3.37
2019-04-01T07:15:23.472Z,3.28
2019-04-01T07:16:24.473Z,3.36
2019-04-01T07:17:24.157Z,3.48
2019-04-01T07:18:23.888Z,3.5
2019-04-01T07:19:23.368Z,3.45
2019-04-01T07:20:23.370Z,3.45
2019-04-01T07:21:23.855Z,3.55
2019-04-01T07:22:23.624Z,3.58
2019-04-01T07:23:23.326Z,3.53
2019-04-01T07:24:23.481Z,3.62
2019-04-01T07:25:22.574Z,3.66
2019-04-01T07:26:23.122Z,3.68
2019-04-01T07:27:24.650Z,3.66
2019-04-01T07:28:23.578Z,3.7
2019-04-01T07:29:23.228Z,3.74
2019-04-01T07:30:23.902Z,3.78
2019-04-01T07:31:23.846Z,3.91
2019-04-01T07:32:23.549Z,3.84
2019-04-01T07:33:22.940Z,3.86
2019-04-01T07:34:23.698Z,3.88
2019-04-01T07:35:22.946Z,3.92
2019-04-01T07:36:23.256Z,3.98
2019-04-01T07:37:22.477Z,4.1
2019-04-01T07:38:23.012Z,4.05
2019-04-01T07:39:22.890Z,4.04
2019-04-01T07:40:23.223Z,4.23
2019-04-01T07:41:22.531Z,4.26
2019-04-01T07:42:23.219Z,4.34
2019-04-01T07:43:22.647Z,4.42
2019-04-01T07:44:22.634Z,4.4
2019-04-01T07:45:22.649Z,4.42
2019-04-01T07:46:21.803Z,4.45
2019-04-01T07:47:23.539Z,4.56
2019-04-01T07:48:22.391Z,4.5
2019-04-01T07:49:22.720Z,4.53
2019-04-01T07:50:23.151Z,4.56
2019-04-01T07:51:22.980Z,4.58
2019-04-01T07:52:23.461Z,4.56
2019-04-01T07:53:22.398Z,4.73
2019-04-01T07:54:24.124Z,4.78
2019-04-01T07:55:23.157Z,4.71
2019-04-01T07:56:22.947Z,4.78
2019-04-01T07:57:22.608Z,4.92
2019-04-01T07:58:23.262Z,4.9
2019-04-01T07:59:22.354Z,4.97
2019-04-01T08:00:23.267Z,4.97
2019-04-01T08:01:23.179Z,5.04
2019-04-01T08:02:22.360Z,5.05
2019-04-01T08:03:22.415Z,5.18
2019-04-01T08:04:22.166Z,5.2
2019-04-01T08:05:25.675Z,5.28
2019-04-01T08:06:22.852Z,5.29
2019-04-01T08:07:22.174Z,5.44
2019-04-01T08:08:21.680Z,5.44
2019-04-01T08:09:21.718Z,5.54
2019-04-01T08:10:22.837Z,5.59
2019-04-01T08:11:21.645Z,5.68
2019-04-01T08:12:21.590Z,5.79
2019-04-01T08:13:22.764Z,5.84
2019-04-01T08:14:22.060Z,5.91
2019-04-01T08:15:24.554Z,5.93
2019-04-01T08:16:21.243Z,5.99
2019-04-01T08:17:22.366Z,5.97
2019-04-01T08:18:21.673Z,6.01
2019-04-01T08:19:21.882Z,6.07
2019-04-01T08:20:21.686Z,6.09
2019-04-01T08:21:21.499Z,6.14
2019-04-01T08:22:22.181Z,6.16
2019-04-01T08:23:21.874Z,6.17
2019-04-01T08:24:21.238Z,6.24
2019-04-01T08:25:22.415Z,6.3
2019-04-01T08:26:21.744Z,6.42
2019-04-01T08:27:21.822Z,6.52
2019-04-01T08:28:23.883Z,6.45
2019-04-01T08:29:35.762Z,6.46
2019-04-01T08:30:21.559Z,6.48
2019-04-01T08:31:21.712Z,6.52
2019-04-01T08:32:20.894Z,6.56
2019-04-01T08:33:21.078Z,6.63
2019-04-01T08:34:20.852Z,6.62
2019-04-01T08:35:21.152Z,6.66
2019-04-01T08:36:21.238Z,6.67
2019-04-01T08:37:21.321Z,6.7
2019-04-01T08:38:21.365Z,6.72
2019-04-01T08:39:21.159Z,6.72
2019-04-01T08:40:20.724Z,6.82
2019-04-01T08:41:22.055Z,6.79
2019-04-01T08:42:20.977Z,6.85
2019-04-01T08:43:20.894Z,6.95
2019-04-01T08:44:20.347Z,6.89
2019-04-01T08:45:21.401Z,6.96
2019-04-01T08:46:21.466Z,6.95
2019-04-01T08:47:21.628Z,7.1
2019-04-01T08:48:21.039Z,7.07
2019-04-01T08:49:20.560Z,7.17
2019-04-01T08:50:21.391Z,7.21
2019-04-01T08:51:21.489Z,7.31
2019-04-01T08:52:21.053Z,7.36
2019-04-01T08:53:20.168Z,7.39
2019-04-01T08:54:21.551Z,7.38
2019-04-01T08:55:21.881Z,7.47
2019-04-01T08:56:21.792Z,7.54
2019-04-01T08:57:21.516Z,7.61
2019-04-01T08:58:21.268Z,7.63
2019-04-01T08:59:21.454Z,7.73
2019-04-01T09:00:21.101Z,7.73
2019-04-01T09:01:34.151Z,7.83
2019-04-01T09:02:24.074Z,7.82
2019-04-01T09:03:20.739Z,7.98
2019-04-01T09:04:21.006Z,7.94
2019-04-01T09:05:20.897Z,8
2019-04-01T09:06:21.111Z,8.03
2019-04-01T09:07:21.077Z,8.01
2019-04-01T09:08:20.342Z,8.01
2019-04-01T09:09:19.815Z,8
2019-04-01T09:10:20.580Z,8.06
2019-04-01T09:11:20.220Z,8.06
2019-04-01T09:12:20.008Z,8.06
2019-04-01T09:13:21.029Z,8.2
2019-04-01T09:14:20.860Z,8.2
2019-04-01T09:15:20.217Z,8.34
2019-04-01T09:16:20.715Z,8.36
2019-04-01T09:17:20.894Z,8.41
2019-04-01T09:18:20.053Z,8.42
2019-04-01T09:19:19.671Z,8.55
2019-04-01T09:20:20.781Z,8.56
2019-04-01T09:21:20.912Z,8.63
2019-04-01T09:22:19.768Z,8.58
2019-04-01T09:23:20.562Z,8.66
2019-04-01T09:24:19.797Z,8.61
2019-04-01T09:25:19.567Z,8.66
2019-04-01T09:26:20.029Z,8.61
2019-04-01T09:27:20.087Z,8.61
2019-04-01T09:28:21.679Z,8.63
2019-04-01T09:29:20.711Z,8.76
2019-04-01T09:30:21.859Z,8.73
2019-04-01T09:31:20.117Z,8.82
2019-04-01T09:32:20.109Z,8.84
2019-04-01T09:33:19.646Z,8.87
2019-04-01T09:34:19.477Z,8.87
2019-04-01T09:35:20.005Z,8.87
2019-04-01T09:36:19.620Z,8.85
2019-04-01T09:37:19.744Z,8.89
2019-04-01T09:38:20.234Z,9.06
2019-04-01T09:39:19.810Z,8.94
2019-04-01T09:40:19.653Z,9.08
2019-04-01T09:41:19.311Z,9.1
2019-04-01T09:42:20.082Z,9.11
2019-04-01T09:43:22.171Z,9.16
2019-04-01T09:44:20.040Z,9.19
2019-04-01T09:45:19.979Z,9.18
2019-04-01T09:46:19.033Z,9.18
2019-04-01T09:47:19.479Z,9.26
2019-04-01T09:48:23.338Z,9.37
2019-04-01T09:49:19.559Z,9.34
2019-04-01T09:50:20.033Z,9.48
2019-04-01T09:51:19.617Z,9.48
2019-04-01T09:52:18.965Z,9.55
2019-04-01T09:53:19.753Z,9.62
2019-04-01T09:54:19.911Z,9.66
2019-04-01T09:55:19.601Z,9.58
2019-04-01T09:56:19.298Z,9.68
2019-04-01T09:57:23.787Z,9.73
2019-04-01T09:58:19.475Z,9.62
2019-04-01T09:59:19.718Z,9.69
2019-04-01T10:00:19.635Z,9.64
2019-04-01T10:01:20.081Z,9.65
2019-04-01T10:02:33.770Z,9.65
2019-04-01T10:03:19.393Z,9.72
2019-04-01T10:04:18.993Z,9.69
2019-04-01T10:05:19.185Z,9.73
2019-04-01T10:06:18.247Z,9.77
2019-04-01T10:07:18.210Z,9.87
2019-04-01T10:08:19.365Z,9.95
2019-04-01T10:09:19.257Z,10.07
2019-04-01T10:10:19.113Z,10.05
2019-04-01T10:11:18.201Z,10.19
2019-04-01T10:12:19.190Z,10.25
2019-04-01T10:13:19.004Z,10.22
2019-04-01T10:14:19.165Z,10.19
2019-04-01T10:15:18.866Z,10.13
2019-04-01T10:16:18.846Z,10.3
2019-04-01T10:17:19.638Z,10.23
2019-04-01T10:18:19.123Z,10.23
2019-04-01T10:19:19.892Z,10.33
2019-04-01T10:20:19.048Z,10.33
2019-04-01T10:21:18.107Z,10.33
2019-04-01T10:22:18.918Z,10.35
2019-04-01T10:23:19.428Z,10.34
2019-04-01T10:24:19.758Z,10.54
2019-04-01T10:25:19.434Z,10.51
2019-04-01T10:26:19.369Z,10.61
2019-04-01T10:27:19.377Z,10.59
2019-04-01T10:28:19.466Z,10.64
2019-04-01T10:29:19.025Z,10.71
2019-04-01T10:30:18.642Z,10.78
2019-04-01T10:31:17.288Z,10.82
2019-04-01T10:32:18.533Z,10.94
2019-04-01T10:33:18.463Z,11.02
2019-04-01T10:34:18.249Z,11.1
2019-04-01T10:35:18.933Z,11.11
2019-04-01T10:36:18.008Z,11.15
2019-04-01T10:37:18.914Z,10.99
2019-04-01T10:38:18.740Z,11.08
2019-04-01T10:39:18.431Z,11.07
2019-04-01T10:40:18.262Z,11.08
2019-04-01T10:41:18.558Z,10.99
2019-04-01T10:42:18.670Z,10.99
2019-04-01T10:43:18.111Z,11.04
2019-04-01T10:44:18.162Z,11.14
2019-04-01T10:45:19.802Z,11.15
2019-04-01T10:46:18.850Z,11.32
2019-04-01T10:47:18.886Z,11.36
2019-04-01T10:48:18.097Z,11.43
2019-04-01T10:49:18.365Z,11.43
2019-04-01T10:50:19.274Z,11.41
2019-04-01T10:51:18.562Z,11.45
2019-04-01T10:52:19.110Z,11.43
2019-04-01T10:53:17.465Z,11.48
2019-04-01T10:54:18.985Z,11.47
2019-04-01T10:55:19.876Z,11.52
2019-04-01T10:56:17.521Z,11.57
2019-04-01T10:57:18.416Z,11.54
2019-04-01T10:58:18.454Z,11.68
2019-04-01T10:59:17.252Z,11.68
2019-04-01T11:00:18.136Z,11.73
2019-04-01T11:01:18.450Z,11.7
2019-04-01T11:02:18.360Z,11.8
2019-04-01T11:03:16.484Z,11.75
2019-04-01T11:04:16.213Z,11.77
2019-04-01T11:05:16.418Z,11.86
2019-04-01T11:06:16.347Z,11.87
2019-04-01T11:07:16.396Z,11.88
2019-04-01T11:08:16.161Z,11.95
2019-04-01T11:09:16.457Z,11.9
2019-04-01T11:10:16.722Z,11.94
2019-04-01T11:11:16.137Z,12
2019-04-01T11:12:16.101Z,11.97
2019-04-01T11:13:16.081Z,11.99
2019-04-01T11:14:16.065Z,11.99
2019-04-01T11:15:20.467Z,11.97
2019-04-01T11:16:16.182Z,12.13
2019-04-01T11:17:17.430Z,12.07
2019-04-01T11:18:16.852Z,12.15
2019-04-01T11:19:15.940Z,12.22
2019-04-01T11:20:15.910Z,12.25
2019-04-01T11:21:15.993Z,12.21
2019-04-01T11:22:15.870Z,12.29
2019-04-01T11:23:15.853Z,12.36
2019-04-01T11:24:15.835Z,12.32
2019-04-01T11:25:15.799Z,12.36
2019-04-01T11:26:15.891Z,12.37
2019-04-01T11:27:15.756Z,12.47
2019-04-01T11:28:15.743Z,12.4
2019-04-01T11:29:15.722Z,12.45
2019-04-01T11:30:18.570Z,12.53
2019-04-01T11:31:15.781Z,12.57
2019-04-01T11:32:18.258Z,12.46
2019-04-01T11:33:15.751Z,12.46
2019-04-01T11:34:15.737Z,12.49
2019-04-01T11:35:16.226Z,12.53
2019-04-01T11:36:16.624Z,12.49
2019-04-01T11:37:15.627Z,12.37
2019-04-01T11:38:15.352Z,12.47
2019-04-01T11:39:15.728Z,12.43
2019-04-01T11:40:17.096Z,12.39
2019-04-01T11:41:15.472Z,12.42
2019-04-01T11:42:15.513Z,12.53
2019-04-01T11:43:15.617Z,12.54
2019-04-01T11:44:15.566Z,12.43
2019-04-01T11:45:15.438Z,12.53
2019-04-01T11:46:17.195Z,12.62
2019-04-01T11:47:15.378Z,12.76
2019-04-01T11:48:16.193Z,12.79
2019-04-01T11:49:15.500Z,12.8
2019-04-01T11:50:16.107Z,12.86
2019-04-01T11:51:15.400Z,12.87
2019-04-01T11:52:18.020Z,12.93
2019-04-01T11:53:15.204Z,13.05
2019-04-01T11:54:15.293Z,13.09
2019-04-01T11:55:15.136Z,13.19
2019-04-01T11:56:15.664Z,13.16
2019-04-01T11:57:16.494Z,13.28
2019-04-01T11:58:15.062Z,13.35
2019-04-01T11:59:15.038Z,13.41
2019-04-01T12:00:17.570Z,13.39
2019-04-01T12:01:14.996Z,13.35
2019-04-01T12:02:15.822Z,13.28
2019-04-01T12:03:14.948Z,13.16
2019-04-01T12:04:14.935Z,13.13
2019-04-01T12:05:14.949Z,13.05
2019-04-01T12:06:14.884Z,13.16
2019-04-01T12:07:14.621Z,13.18
2019-04-01T12:08:14.843Z,13.19
2019-04-01T12:09:14.821Z,13.19
2019-04-01T12:10:14.795Z,13.3
2019-04-01T12:11:15.083Z,13.31
2019-04-01T12:12:28.343Z,13.3
2019-04-01T12:13:14.728Z,13.41
2019-04-01T12:14:14.706Z,13.52
2019-04-01T12:15:17.232Z,13.5
2019-04-01T12:16:14.668Z,13.49
2019-04-01T12:17:14.645Z,13.59
2019-04-01T12:18:14.648Z,13.59
2019-04-01T12:19:17.899Z,13.6
2019-04-01T12:20:14.655Z,13.7
2019-04-01T12:21:14.595Z,13.77
2019-04-01T12:22:15.951Z,13.78
2019-04-01T12:23:14.726Z,13.78
2019-04-01T12:24:14.489Z,13.79
2019-04-01T12:25:14.537Z,13.78
2019-04-01T12:26:20.378Z,13.72
2019-04-01T12:27:14.464Z,13.75
2019-04-01T12:28:14.497Z,13.9
2019-04-01T12:29:17.234Z,13.97
2019-04-01T12:30:14.364Z,14.08
2019-04-01T12:31:17.625Z,14.14
2019-04-01T12:32:14.419Z,14.11
2019-04-01T12:33:14.298Z,14.1
2019-04-01T12:34:14.276Z,14.12
2019-04-01T12:35:14.253Z,14.11
2019-04-01T12:36:16.458Z,14.18
2019-04-01T12:37:14.221Z,14.15
2019-04-01T12:38:14.204Z,14.26
2019-04-01T12:39:14.311Z,14.4
2019-04-01T12:40:14.160Z,14.35
2019-04-01T12:41:14.143Z,14.35
2019-04-01T12:42:14.105Z,14.15
2019-04-01T12:43:15.168Z,14.11
2019-04-01T12:44:15.783Z,14.05
2019-04-01T12:45:15.283Z,14.1
2019-04-01T12:46:14.340Z,14.14
2019-04-01T12:47:13.996Z,14.14
2019-04-01T12:48:13.993Z,14.17
2019-04-01T12:49:13.957Z,14.14
2019-04-01T12:50:13.965Z,14.18
2019-04-01T12:51:13.917Z,14.22
2019-04-01T12:52:13.900Z,14.28
2019-04-01T12:53:13.887Z,14.37
2019-04-01T12:54:15.193Z,14.4
2019-04-01T12:55:13.843Z,14.47
2019-04-01T12:56:13.817Z,14.53
2019-04-01T12:57:13.593Z,14.54
2019-04-01T12:58:13.769Z,14.55
2019-04-01T12:59:13.751Z,14.51
2019-04-01T13:00:13.729Z,14.5
2019-04-01T13:01:13.707Z,14.5
2019-04-01T13:02:13.694Z,14.55
2019-04-01T13:03:13.672Z,14.66
2019-04-01T13:04:13.652Z,14.72
2019-04-01T13:05:13.629Z,14.7
2019-04-01T13:06:13.636Z,14.7
2019-04-01T13:07:13.587Z,14.79
2019-04-01T13:08:13.563Z,14.68
2019-04-01T13:09:13.537Z,14.7
2019-04-01T13:10:13.523Z,14.72
2019-04-01T13:11:13.494Z,14.79
2019-04-01T13:12:13.485Z,14.68
2019-04-01T13:13:15.654Z,14.82
2019-04-01T13:14:13.799Z,14.79
2019-04-01T13:15:14.976Z,14.79
2019-04-01T13:16:13.961Z,14.81